createdAt,value
2018-07-13T00:00:23.654Z,11.17
2018-07-13T00:05:26.755Z,8.57
2018-07-13T00:10:29.868Z,11.80
2018-07-13T00:15:32.972Z,8.63
2018-07-13T00:20:36.083Z,11.07
2018-07-13T00:25:45.993Z,10.30
2018-07-13T00:30:49.104Z,12.10
2018-07-13T00:35:52.207Z,10.00
2018-07-13T00:40:55.311Z,11.33
2018-07-13T00:45:58.428Z,9.13
2018-07-13T00:51:01.307Z,11.10
2018-07-13T00:56:04.388Z,8.87
2018-07-13T01:01:07.500Z,10.90
2018-07-13T01:06:10.608Z,10.40
2018-07-13T01:11:13.731Z,12.37
2018-07-13T01:16:16.835Z,11.60
2018-07-13T01:21:19.978Z,10.10
2018-07-13T01:26:23.064Z,9.33
2018-07-13T01:31:25.963Z,10.50
2018-07-13T01:36:29.094Z,9.60
2018-07-13T01:41:32.200Z,11.97
2018-07-13T01:46:35.309Z,10.67
2018-07-13T01:51:38.417Z,10.40
2018-07-13T01:56:41.502Z,8.37
2018-07-13T02:01:44.443Z,9.70
2018-07-13T02:06:47.523Z,8.80
2018-07-13T02:11:50.665Z,8.77
2018-07-13T02:16:53.756Z,12.67
2018-07-13T02:21:56.820Z,9.80
2018-07-13T02:26:59.911Z,9.10
2018-07-13T02:32:03.003Z,10.10
2018-07-13T02:37:06.342Z,12.23
2018-07-13T02:42:09.482Z,11.00
2018-07-13T02:47:12.596Z,8.40
2018-07-13T02:52:15.741Z,9.53
2018-07-13T02:57:18.683Z,11.67
2018-07-13T03:02:21.792Z,9.77
2018-07-13T03:07:24.921Z,12.43
2018-07-13T03:12:27.805Z,11.93
2018-07-13T03:17:31.039Z,10.10
2018-07-13T03:22:34.177Z,12.70
2018-07-13T03:27:37.299Z,12.17
2018-07-13T03:32:40.401Z,13.40
2018-07-13T03:37:43.532Z,15.00
2018-07-13T03:42:46.664Z,11.93
2018-07-13T03:47:49.759Z,9.23
2018-07-13T03:52:52.903Z,11.73
2018-07-13T03:57:56.037Z,10.70
2018-07-13T04:02:59.161Z,10.03
2018-07-13T04:08:02.288Z,12.93
2018-07-13T04:13:05.864Z,12.37
2018-07-13T04:18:26.801Z,10.30
2018-07-13T04:23:30.018Z,8.60
2018-07-13T04:28:33.500Z,8.83
2018-07-13T04:33:36.616Z,11.50
2018-07-13T04:38:39.740Z,10.90
2018-07-13T04:43:42.857Z,9.60
2018-07-13T04:48:45.976Z,14.00
2018-07-13T04:53:49.121Z,11.87
2018-07-13T04:58:52.252Z,10.00
2018-07-13T05:03:55.503Z,10.30
2018-07-13T05:08:58.404Z,13.03
2018-07-13T05:14:01.557Z,9.97
2018-07-13T05:19:04.754Z,11.90
2018-07-13T05:24:07.839Z,9.13
2018-07-13T05:29:10.969Z,7.50
2018-07-13T05:34:14.086Z,8.27
2018-07-13T05:39:17.208Z,8.10
2018-07-13T05:44:20.324Z,8.30
2018-07-13T05:49:23.480Z,10.87
2018-07-13T05:54:26.632Z,8.20
2018-07-13T05:59:29.747Z,8.77
2018-07-13T06:04:32.968Z,9.20
2018-07-13T06:21:40.083Z,6.77
2018-07-13T06:26:43.171Z,9.37
2018-07-13T06:44:07.068Z,8.07
2018-07-13T06:49:10.192Z,8.87
2018-07-13T06:54:13.609Z,8.20
2018-07-13T06:59:19.047Z,6.63
2018-07-13T07:04:26.123Z,8.10
2018-07-13T07:09:29.268Z,9.30
2018-07-13T07:14:32.379Z,8.37
2018-07-13T07:19:35.520Z,7.87
2018-07-13T07:24:38.640Z,8.40
2018-07-13T07:29:41.744Z,7.30
2018-07-13T07:34:44.844Z,8.43
2018-07-13T07:39:47.981Z,7.60
2018-07-13T07:44:51.108Z,8.00
2018-07-13T07:49:54.256Z,7.00
2018-07-13T07:54:57.403Z,7.20
2018-07-13T08:00:00.508Z,7.33
2018-07-13T08:05:03.656Z,6.13
2018-07-13T08:10:06.864Z,7.40
2018-07-13T08:15:10.056Z,8.47
2018-07-13T08:20:17.422Z,7.10
2018-07-13T08:25:20.772Z,9.47
2018-07-13T08:30:39.566Z,6.97
2018-07-13T08:35:42.964Z,8.37
2018-07-13T08:40:46.136Z,7.17
2018-07-13T08:45:49.338Z,7.50
2018-07-13T08:50:52.452Z,7.80
2018-07-13T08:55:55.644Z,7.93
2018-07-13T09:00:58.729Z,7.63
2018-07-13T09:06:01.829Z,7.23
2018-07-13T09:11:04.935Z,7.70
2018-07-13T09:16:08.031Z,6.50
2018-07-13T09:21:11.151Z,7.07
2018-07-13T09:26:14.290Z,6.20
2018-07-13T09:31:17.527Z,8.90
2018-07-13T09:36:20.631Z,6.00
2018-07-13T09:41:23.728Z,7.43
2018-07-13T09:46:26.852Z,5.70
2018-07-13T09:51:30.046Z,7.33
2018-07-13T09:56:33.150Z,6.70
2018-07-13T10:01:36.276Z,6.70
2018-07-13T10:06:39.363Z,7.47
2018-07-13T10:11:42.483Z,5.47
2018-07-13T10:16:45.708Z,7.53
2018-07-13T10:21:49.164Z,7.97
2018-07-13T10:26:52.700Z,8.20
2018-07-13T10:31:55.928Z,7.53
2018-07-13T10:37:03.196Z,5.30
2018-07-13T10:42:06.412Z,8.00
2018-07-13T10:47:09.629Z,5.17
2018-07-13T10:52:12.731Z,6.30
2018-07-13T10:57:15.837Z,5.50
2018-07-13T11:02:18.712Z,5.87
2018-07-13T11:07:21.897Z,7.50
2018-07-13T11:12:24.985Z,5.97
2018-07-13T11:17:28.152Z,5.17
2018-07-13T11:22:31.280Z,8.20
2018-07-13T11:27:34.371Z,6.17
2018-07-13T11:32:37.467Z,5.83
2018-07-13T11:37:40.564Z,6.07
2018-07-13T11:42:43.443Z,6.57
2018-07-13T11:47:46.613Z,6.17
2018-07-13T11:52:49.712Z,6.23
2018-07-13T11:57:59.243Z,6.07
2018-07-13T12:03:02.360Z,5.87
2018-07-13T12:08:05.734Z,6.10
2018-07-13T12:13:08.844Z,5.60
2018-07-13T12:18:11.947Z,6.70
2018-07-13T12:23:15.097Z,5.43
2018-07-13T12:28:18.173Z,5.57
2018-07-13T12:33:21.279Z,5.90
2018-07-13T12:38:24.396Z,6.00
2018-07-13T12:43:27.478Z,7.17
2018-07-13T12:48:30.583Z,5.63
2018-07-13T12:53:33.676Z,6.10
2018-07-13T12:58:36.868Z,5.60
2018-07-13T13:03:40.083Z,6.40
2018-07-13T13:08:43.179Z,5.57
2018-07-13T13:13:46.278Z,5.73
2018-07-13T13:18:49.380Z,7.10
2018-07-13T13:23:52.469Z,6.47
2018-07-13T13:28:55.596Z,6.93
2018-07-13T13:33:58.707Z,5.60
2018-07-13T13:39:01.804Z,5.00
2018-07-13T13:44:04.888Z,4.80
2018-07-13T13:49:08.008Z,4.70
2018-07-13T13:54:11.376Z,5.87
2018-07-13T13:59:14.495Z,4.93
2018-07-13T14:04:17.584Z,5.50
2018-07-13T14:09:20.788Z,4.20
2018-07-13T14:14:24.035Z,5.77
2018-07-13T14:19:27.103Z,5.80
2018-07-13T14:24:30.272Z,6.17
2018-07-13T14:29:33.352Z,5.60
2018-07-13T14:34:36.544Z,5.83
2018-07-13T14:39:39.599Z,6.10
2018-07-13T14:44:42.811Z,4.67
2018-07-13T14:49:46.009Z,5.47
2018-07-13T14:54:49.136Z,5.47
2018-07-13T14:59:52.216Z,5.50
2018-07-13T15:04:55.147Z,5.63
2018-07-13T15:09:58.247Z,5.27
2018-07-13T15:15:01.412Z,5.43
2018-07-13T15:20:04.611Z,6.00
2018-07-13T15:25:07.742Z,4.37
2018-07-13T15:30:10.883Z,5.40
2018-07-13T15:35:13.970Z,5.37
2018-07-13T15:40:17.088Z,5.50
2018-07-13T15:45:20.183Z,5.07
2018-07-13T15:50:23.321Z,5.23
2018-07-13T15:55:34.639Z,4.90
2018-07-13T16:00:37.820Z,4.83
2018-07-13T16:05:41.013Z,5.77
2018-07-13T16:10:44.236Z,5.30
2018-07-13T16:15:47.256Z,5.50
2018-07-13T16:20:50.324Z,5.23
2018-07-13T16:25:53.449Z,5.07
2018-07-13T16:30:56.577Z,5.77
2018-07-13T16:35:59.755Z,5.80
2018-07-13T16:41:02.841Z,5.03
2018-07-13T16:46:05.960Z,6.90
2018-07-13T16:51:09.093Z,5.60
2018-07-13T16:56:12.235Z,6.00
2018-07-13T17:01:15.431Z,5.83
2018-07-13T17:06:18.543Z,5.50
2018-07-13T17:11:21.642Z,4.57
2018-07-13T17:16:24.751Z,6.20
2018-07-13T17:21:27.821Z,5.67
2018-07-13T17:26:30.934Z,5.63
2018-07-13T17:31:34.139Z,5.00
2018-07-13T17:36:37.239Z,5.00
2018-07-13T17:41:40.331Z,5.03
2018-07-13T17:46:43.440Z,5.40
2018-07-13T17:51:46.562Z,5.10
2018-07-13T17:56:49.659Z,4.50
2018-07-13T18:01:52.788Z,5.30
2018-07-13T18:06:55.917Z,4.50
2018-07-13T18:11:59.012Z,3.80
2018-07-13T18:17:02.120Z,4.27
2018-07-13T18:22:05.232Z,4.60
2018-07-13T18:27:08.341Z,4.57
2018-07-13T18:32:11.455Z,4.37
2018-07-13T18:37:14.548Z,4.20
2018-07-13T18:42:17.736Z,4.17
2018-07-13T18:47:20.856Z,4.57
2018-07-13T18:52:23.975Z,5.20
2018-07-13T18:57:27.060Z,4.50
2018-07-13T19:02:30.186Z,4.60
2018-07-13T19:07:33.316Z,4.70
2018-07-13T19:12:36.427Z,4.57
2018-07-13T19:17:39.532Z,5.20
2018-07-13T19:22:42.738Z,4.30
2018-07-13T19:27:45.784Z,4.80
2018-07-13T19:32:48.964Z,4.17
2018-07-13T19:37:52.067Z,4.00
2018-07-13T19:42:56.175Z,4.40
2018-07-13T19:47:59.295Z,4.93
2018-07-13T19:53:02.479Z,4.20
2018-07-13T19:58:05.596Z,4.30
2018-07-13T20:03:08.736Z,4.93
2018-07-13T20:08:11.816Z,4.53
2018-07-13T20:13:14.912Z,4.37
2018-07-13T20:18:17.999Z,4.80
2018-07-13T20:23:21.072Z,5.07
2018-07-13T20:28:24.211Z,4.80
2018-07-13T20:33:27.390Z,4.37
2018-07-13T20:38:30.437Z,3.70
2018-07-13T20:43:33.536Z,5.73
2018-07-13T20:48:36.867Z,4.80
2018-07-13T20:53:39.980Z,4.57
2018-07-13T20:58:43.155Z,5.10
2018-07-13T21:03:46.252Z,4.33
2018-07-13T21:08:49.464Z,5.33
2018-07-13T21:13:52.563Z,4.87
2018-07-13T21:18:55.685Z,4.47
2018-07-13T21:23:58.892Z,5.03
2018-07-13T21:29:01.981Z,4.30
2018-07-13T21:34:05.264Z,4.53
2018-07-13T21:39:08.773Z,4.70
2018-07-13T21:44:11.895Z,4.20
2018-07-13T21:49:15.046Z,3.73
2018-07-13T21:54:18.291Z,4.87
2018-07-13T21:59:21.436Z,4.30
2018-07-13T22:09:34.894Z,4.87
2018-07-13T22:14:38.014Z,4.73
2018-07-13T22:19:41.096Z,3.90
2018-07-13T22:24:44.186Z,4.47
2018-07-13T22:29:47.284Z,4.67
2018-07-13T22:34:50.404Z,4.60
2018-07-13T22:39:53.475Z,4.40
2018-07-13T22:44:56.564Z,5.23
2018-07-13T22:49:59.646Z,5.50
2018-07-13T22:55:02.528Z,5.00
2018-07-13T23:00:06.200Z,5.33
2018-07-13T23:05:09.448Z,5.17
2018-07-13T23:10:12.577Z,4.50
2018-07-13T23:15:15.740Z,4.67
2018-07-13T23:20:18.851Z,4.37
2018-07-13T23:25:21.953Z,4.97
2018-07-13T23:30:25.073Z,5.50
2018-07-13T23:35:28.175Z,5.07
2018-07-13T23:40:31.279Z,4.90
2018-07-13T23:45:34.383Z,4.40
2018-07-13T23:50:37.488Z,5.33
2018-07-13T23:55:40.596Z,5.17
